sensor_id;sensor_type;location;lat;lon;timestamp;P1;durP1;ratioP1;P2;durP2;ratioP2
40737;SDS011;54759;48.094;-1.628;2022-08-14T00:01:02;0.73;;;0.63;;
40737;SDS011;54759;48.094;-1.628;2022-08-14T00:04:10;0.68;;;0.60;;
40737;SDS011;54759;48.094;-1.628;2022-08-14T00:07:32;0.60;;;0.60;;
40737;SDS011;54759;48.094;-1.628;2022-08-14T00:10:42;0.90;;;0.85;;
40737;SDS011;54759;48.094;-1.628;2022-08-14T00:13:54;0.70;;;0.70;;
40737;SDS011;54759;48.094;-1.628;2022-08-14T00:16:56;0.70;;;0.70;;
40737;SDS011;54759;48.094;-1.628;2022-08-14T00:20:02;1.00;;;0.90;;
40737;SDS011;54759;48.094;-1.628;2022-08-14T00:23:05;1.10;;;1.00;;
40737;SDS011;54759;48.094;-1.628;2022-08-14T00:26:14;0.93;;;0.90;;
40737;SDS011;54759;48.094;-1.628;2022-08-14T00:29:23;1.30;;;1.20;;
40737;SDS011;54759;48.094;-1.628;2022-08-14T00:32:26;1.40;;;1.20;;
40737;SDS011;54759;48.094;-1.628;2022-08-14T00:35:47;1.30;;;1.20;;
40737;SDS011;54759;48.094;-1.628;2022-08-14T00:39:11;1.40;;;1.30;;
40737;SDS011;54759;48.094;-1.628;2022-08-14T00:42:17;1.48;;;1.38;;
40737;SDS011;54759;48.094;-1.628;2022-08-14T00:45:22;1.77;;;1.67;;
40737;SDS011;54759;48.094;-1.628;2022-08-14T00:48:24;1.55;;;1.45;;
40737;SDS011;54759;48.094;-1.628;2022-08-14T00:51:36;1.60;;;1.50;;
40737;SDS011;54759;48.094;-1.628;2022-08-14T00:54:41;1.48;;;1.38;;
40737;SDS011;54759;48.094;-1.628;2022-08-14T00:57:43;1.35;;;1.25;;
40737;SDS011;54759;48.094;-1.628;2022-08-14T01:00:46;1.60;;;1.50;;
40737;SDS011;54759;48.094;-1.628;2022-08-14T01:03:58;1.58;;;1.48;;
40737;SDS011;54759;48.094;-1.628;2022-08-14T01:07:06;1.45;;;1.35;;
40737;SDS011;54759;48.094;-1.628;2022-08-14T01:10:09;1.40;;;1.30;;
40737;SDS011;54759;48.094;-1.628;2022-08-14T01:13:13;1.45;;;1.35;;
40737;SDS011;54759;48.094;-1.628;2022-08-14T01:16:21;1.45;;;1.30;;
40737;SDS011;54759;48.094;-1.628;2022-08-14T01:19:31;1.50;;;1.40;;
40737;SDS011;54759;48.094;-1.628;2022-08-14T01:22:50;1.30;;;1.20;;
40737;SDS011;54759;48.094;-1.628;2022-08-14T01:25:52;1.30;;;1.20;;
40737;SDS011;54759;48.094;-1.628;2022-08-14T01:28:56;1.30;;;1.20;;
40737;SDS011;54759;48.094;-1.628;2022-08-14T01:31:59;1.48;;;1.38;;
40737;SDS011;54759;48.094;-1.628;2022-08-14T01:35:01;1.30;;;1.20;;
40737;SDS011;54759;48.094;-1.628;2022-08-14T01:38:22;1.33;;;1.23;;
40737;SDS011;54759;48.094;-1.628;2022-08-14T01:41:26;1.20;;;1.10;;
40737;SDS011;54759;48.094;-1.628;2022-08-14T01:44:31;1.33;;;1.23;;
40737;SDS011;54759;48.094;-1.628;2022-08-14T01:47:34;1.10;;;1.10;;
40737;SDS011;54759;48.094;-1.628;2022-08-14T01:50:37;1.35;;;1.25;;
40737;SDS011;54759;48.094;-1.628;2022-08-14T01:53:43;1.50;;;1.40;;
40737;SDS011;54759;48.094;-1.628;2022-08-14T01:56:52;1.50;;;1.40;;
40737;SDS011;54759;48.094;-1.628;2022-08-14T01:59:56;1.50;;;1.40;;
40737;SDS011;54759;48.094;-1.628;2022-08-14T02:02:58;1.30;;;1.20;;
40737;SDS011;54759;48.094;-1.628;2022-08-14T02:06:00;1.30;;;1.20;;
40737;SDS011;54759;48.094;-1.628;2022-08-14T02:09:22;1.48;;;1.38;;
40737;SDS011;54759;48.094;-1.628;2022-08-14T02:12:28;1.30;;;1.20;;
40737;SDS011;54759;48.094;-1.628;2022-08-14T02:15:31;1.58;;;1.48;;
40737;SDS011;54759;48.094;-1.628;2022-08-14T02:18:36;1.42;;;1.33;;
40737;SDS011;54759;48.094;-1.628;2022-08-14T02:21:40;1.50;;;1.40;;
40737;SDS011;54759;48.094;-1.628;2022-08-14T02:24:44;1.73;;;1.63;;
40737;SDS011;54759;48.094;-1.628;2022-08-14T02:27:48;1.40;;;1.30;;
40737;SDS011;54759;48.094;-1.628;2022-08-14T02:34:16;1.77;;;1.50;;
40737;SDS011;54759;48.094;-1.628;2022-08-14T02:37:26;1.50;;;1.40;;
40737;SDS011;54759;48.094;-1.628;2022-08-14T02:40:49;1.58;;;1.48;;
40737;SDS011;54759;48.094;-1.628;2022-08-14T02:43:50;1.65;;;1.55;;
40737;SDS011;54759;48.094;-1.628;2022-08-14T02:46:52;1.30;;;1.20;;
40737;SDS011;54759;48.094;-1.628;2022-08-14T02:50:02;1.25;;;1.15;;
40737;SDS011;54759;48.094;-1.628;2022-08-14T02:53:06;1.40;;;1.20;;
40737;SDS011;54759;48.094;-1.628;2022-08-14T02:56:10;1.35;;;1.25;;
40737;SDS011;54759;48.094;-1.628;2022-08-14T02:59:35;1.42;;;1.33;;
40737;SDS011;54759;48.094;-1.628;2022-08-14T03:02:39;1.50;;;1.40;;
40737;SDS011;54759;48.094;-1.628;2022-08-14T03:05:59;1.45;;;1.35;;
40737;SDS011;54759;48.094;-1.628;2022-08-14T03:09:00;1.15;;;1.10;;
40737;SDS011;54759;48.094;-1.628;2022-08-14T03:12:05;1.45;;;1.30;;
40737;SDS011;54759;48.094;-1.628;2022-08-14T03:15:07;1.50;;;1.40;;
40737;SDS011;54759;48.094;-1.628;2022-08-14T03:18:14;1.60;;;1.30;;
40737;SDS011;54759;48.094;-1.628;2022-08-14T03:21:20;1.17;;;1.08;;
40737;SDS011;54759;48.094;-1.628;2022-08-14T03:24:23;1.33;;;1.23;;
40737;SDS011;54759;48.094;-1.628;2022-08-14T03:27:27;1.30;;;1.20;;
40737;SDS011;54759;48.094;-1.628;2022-08-14T03:30:48;1.42;;;1.33;;
40737;SDS011;54759;48.094;-1.628;2022-08-14T03:33:55;1.20;;;1.10;;
40737;SDS011;54759;48.094;-1.628;2022-08-14T03:37:00;1.00;;;0.98;;
40737;SDS011;54759;48.094;-1.628;2022-08-14T03:43:25;1.13;;;1.00;;
40737;SDS011;54759;48.094;-1.628;2022-08-14T03:46:29;1.25;;;1.15;;
40737;SDS011;54759;48.094;-1.628;2022-08-14T03:49:52;1.42;;;1.13;;
40737;SDS011;54759;48.094;-1.628;2022-08-14T03:52:58;1.10;;;1.00;;
40737;SDS011;54759;48.094;-1.628;2022-08-14T03:56:01;1.40;;;1.30;;
40737;SDS011;54759;48.094;-1.628;2022-08-14T03:59:04;1.10;;;1.00;;
40737;SDS011;54759;48.094;-1.628;2022-08-14T04:02:18;1.25;;;1.15;;
40737;SDS011;54759;48.094;-1.628;2022-08-14T04:05:37;1.30;;;1.20;;
40737;SDS011;54759;48.094;-1.628;2022-08-14T04:08:49;1.10;;;1.00;;
40737;SDS011;54759;48.094;-1.628;2022-08-14T04:11:51;1.10;;;1.00;;
40737;SDS011;54759;48.094;-1.628;2022-08-14T04:14:53;1.17;;;1.08;;
40737;SDS011;54759;48.094;-1.628;2022-08-14T04:17:55;1.42;;;1.20;;
40737;SDS011;54759;48.094;-1.628;2022-08-14T04:20:58;1.48;;;1.30;;
40737;SDS011;54759;48.094;-1.628;2022-08-14T04:24:04;1.10;;;1.00;;
40737;SDS011;54759;48.094;-1.628;2022-08-14T04:27:07;1.10;;;1.00;;
40737;SDS011;54759;48.094;-1.628;2022-08-14T04:30:11;1.20;;;1.02;;
40737;SDS011;54759;48.094;-1.628;2022-08-14T04:33:30;1.20;;;1.10;;
40737;SDS011;54759;48.094;-1.628;2022-08-14T04:36:32;1.10;;;1.00;;
40737;SDS011;54759;48.094;-1.628;2022-08-14T04:39:54;1.30;;;1.05;;
40737;SDS011;54759;48.094;-1.628;2022-08-14T04:43:11;2.08;;;1.30;;
40737;SDS011;54759;48.094;-1.628;2022-08-14T04:46:39;1.50;;;1.40;;
40737;SDS011;54759;48.094;-1.628;2022-08-14T04:50:01;1.40;;;1.13;;
40737;SDS011;54759;48.094;-1.628;2022-08-14T04:53:04;1.77;;;1.30;;
40737;SDS011;54759;48.094;-1.628;2022-08-14T04:56:06;1.33;;;1.17;;
40737;SDS011;54759;48.094;-1.628;2022-08-14T04:59:27;1.20;;;1.10;;
40737;SDS011;54759;48.094;-1.628;2022-08-14T05:02:30;1.40;;;1.30;;
40737;SDS011;54759;48.094;-1.628;2022-08-14T05:05:36;1.15;;;1.05;;
40737;SDS011;54759;48.094;-1.628;2022-08-14T05:08:39;1.27;;;1.17;;
40737;SDS011;54759;48.094;-1.628;2022-08-14T05:12:00;1.25;;;1.15;;
40737;SDS011;54759;48.094;-1.628;2022-08-14T05:18:24;1.27;;;1.17;;
40737;SDS011;54759;48.094;-1.628;2022-08-14T05:21:46;1.30;;;1.20;;
40737;SDS011;54759;48.094;-1.628;2022-08-14T05:25:01;1.60;;;1.40;;
40737;SDS011;54759;48.094;-1.628;2022-08-14T05:28:06;1.40;;;1.30;;
40737;SDS011;54759;48.094;-1.628;2022-08-14T05:31:16;1.20;;;1.10;;
40737;SDS011;54759;48.094;-1.628;2022-08-14T05:34:21;1.15;;;1.02;;
40737;SDS011;54759;48.094;-1.628;2022-08-14T05:37:29;1.90;;;1.63;;
40737;SDS011;54759;48.094;-1.628;2022-08-14T05:40:31;1.40;;;1.30;;
40737;SDS011;54759;48.094;-1.628;2022-08-14T05:43:34;1.45;;;1.35;;
40737;SDS011;54759;48.094;-1.628;2022-08-14T05:46:42;1.50;;;1.40;;
40737;SDS011;54759;48.094;-1.628;2022-08-14T05:49:50;1.30;;;1.20;;
40737;SDS011;54759;48.094;-1.628;2022-08-14T05:52:52;1.30;;;1.20;;
40737;SDS011;54759;48.094;-1.628;2022-08-14T05:55:54;1.38;;;1.27;;
40737;SDS011;54759;48.094;-1.628;2022-08-14T05:58:59;1.40;;;1.30;;
40737;SDS011;54759;48.094;-1.628;2022-08-14T06:02:01;1.20;;;1.10;;
40737;SDS011;54759;48.094;-1.628;2022-08-14T06:05:07;1.27;;;1.17;;
40737;SDS011;54759;48.094;-1.628;2022-08-14T06:08:16;1.17;;;1.08;;
40737;SDS011;54759;48.094;-1.628;2022-08-14T06:11:37;1.20;;;1.10;;
40737;SDS011;54759;48.094;-1.628;2022-08-14T06:14:38;1.45;;;1.23;;
40737;SDS011;54759;48.094;-1.628;2022-08-14T06:17:42;1.20;;;1.10;;
40737;SDS011;54759;48.094;-1.628;2022-08-14T06:20:48;1.38;;;1.27;;
40737;SDS011;54759;48.094;-1.628;2022-08-14T06:23:50;1.45;;;1.20;;
40737;SDS011;54759;48.094;-1.628;2022-08-14T06:26:52;1.27;;;1.17;;
40737;SDS011;54759;48.094;-1.628;2022-08-14T06:30:07;1.38;;;1.27;;
40737;SDS011;54759;48.094;-1.628;2022-08-14T06:33:11;1.35;;;1.25;;
40737;SDS011;54759;48.094;-1.628;2022-08-14T06:36:16;1.15;;;1.02;;
40737;SDS011;54759;48.094;-1.628;2022-08-14T06:39:18;1.30;;;1.20;;
40737;SDS011;54759;48.094;-1.628;2022-08-14T06:42:37;1.42;;;1.33;;
40737;SDS011;54759;48.094;-1.628;2022-08-14T06:45:42;1.10;;;1.00;;
40737;SDS011;54759;48.094;-1.628;2022-08-14T06:48:54;1.40;;;1.30;;
40737;SDS011;54759;48.094;-1.628;2022-08-14T06:51:59;1.63;;;1.30;;
40737;SDS011;54759;48.094;-1.628;2022-08-14T06:55:02;1.50;;;1.25;;
40737;SDS011;54759;48.094;-1.628;2022-08-14T06:58:05;1.27;;;1.15;;
40737;SDS011;54759;48.094;-1.628;2022-08-14T07:01:25;1.40;;;1.30;;
40737;SDS011;54759;48.094;-1.628;2022-08-14T07:04:41;1.60;;;1.50;;
40737;SDS011;54759;48.094;-1.628;2022-08-14T07:07:58;1.20;;;1.10;;
40737;SDS011;54759;48.094;-1.628;2022-08-14T07:11:00;1.27;;;1.17;;
40737;SDS011;54759;48.094;-1.628;2022-08-14T07:14:02;1.40;;;1.30;;
40737;SDS011;54759;48.094;-1.628;2022-08-14T07:17:06;1.58;;;1.48;;
40737;SDS011;54759;48.094;-1.628;2022-08-14T07:20:07;1.30;;;1.20;;
40737;SDS011;54759;48.094;-1.628;2022-08-14T07:23:15;1.40;;;1.30;;
40737;SDS011;54759;48.094;-1.628;2022-08-14T07:26:21;1.23;;;1.10;;
40737;SDS011;54759;48.094;-1.628;2022-08-14T07:29:24;1.50;;;1.40;;
40737;SDS011;54759;48.094;-1.628;2022-08-14T07:32:29;1.40;;;1.20;;
40737;SDS011;54759;48.094;-1.628;2022-08-14T07:35:35;1.52;;;1.42;;
40737;SDS011;54759;48.094;-1.628;2022-08-14T07:38:57;1.40;;;1.30;;
40737;SDS011;54759;48.094;-1.628;2022-08-14T07:42:00;1.38;;;1.27;;
40737;SDS011;54759;48.094;-1.628;2022-08-14T07:45:02;1.27;;;1.17;;
40737;SDS011;54759;48.094;-1.628;2022-08-14T07:48:04;1.48;;;1.38;;
40737;SDS011;54759;48.094;-1.628;2022-08-14T07:51:09;1.60;;;1.40;;
40737;SDS011;54759;48.094;-1.628;2022-08-14T07:54:12;1.50;;;1.40;;
